Time;durP1;ratioP1;P1;durP2;ratioP2;P2;SDS_P1;SDS_P2;PMS_P1;PMS_P2;Temp;Humidity;BMP_temperature;BMP_pressure;BME280_temperature;BME280_humidity;BME280_pressure;Samples;Min_cycle;Max_cycle;Signal;HPM_P1;HPM_P2
2021/06/20 00:01:44;;;;;;;6.05;1.67;;;15.20;87.20;;;;;;5092033;28;20043;-46
2021/06/20 00:04:12;;;;;;;3.78;1.30;;;15.20;87.10;;;;;;5092074;28;20031;-52
2021/06/20 00:06:39;;;;;;;3.30;1.25;;;15.20;87.20;;;;;;5092159;28;20035;-49
2021/06/20 00:09:10;;;;;;;5.97;1.70;;;15.20;87.10;;;;;;5091599;28;20073;-52
2021/06/20 00:11:40;;;;;;;5.30;1.80;;;15.20;87.00;;;;;;5092108;28;20105;-54
2021/06/20 00:14:09;;;;;;;6.82;1.70;;;15.20;87.00;;;;;;5090552;28;20034;-51
2021/06/20 00:16:38;;;;;;;2.63;0.93;;;15.20;87.10;;;;;;5091758;28;20081;-49
2021/06/20 00:19:07;;;;;;;6.07;2.58;;;15.20;87.10;;;;;;5091776;28;20031;-53
2021/06/20 00:21:36;;;;;;;3.20;1.17;;;15.20;87.00;;;;;;5092135;28;20399;-50
2021/06/20 00:24:04;;;;;;;3.92;1.48;;;15.20;87.00;;;;;;5091576;28;20501;-54
2021/06/20 00:26:32;;;;;;;6.32;1.58;;;15.20;87.00;;;;;;5091922;28;20150;-55
2021/06/20 00:28:59;;;;;;;4.95;1.73;;;15.20;87.00;;;;;;5091766;28;20027;-54
2021/06/20 00:31:27;;;;;;;6.47;1.70;;;15.20;87.00;;;;;;5092090;28;20498;-54
2021/06/20 00:33:54;;;;;;;5.68;1.73;;;15.30;87.00;;;;;;5092006;28;20039;-56
2021/06/20 00:36:22;;;;;;;4.70;1.17;;;15.20;86.90;;;;;;5092230;28;20027;-53
2021/06/20 00:38:49;;;;;;;4.93;1.58;;;15.30;87.00;;;;;;5091529;28;20442;-51
2021/06/20 00:41:17;;;;;;;4.20;1.60;;;15.20;86.90;;;;;;5092403;28;20171;-52
2021/06/20 00:43:44;;;;;;;5.53;1.77;;;15.30;87.00;;;;;;5091538;28;20438;-51
2021/06/20 00:46:11;;;;;;;5.10;1.52;;;15.30;86.90;;;;;;5091889;28;20056;-50
2021/06/20 00:48:39;;;;;;;3.50;1.38;;;15.30;87.50;;;;;;5092334;28;20384;-49
2021/06/20 00:51:06;;;;;;;6.90;1.35;;;15.30;87.00;;;;;;5093378;28;20031;-50
2021/06/20 00:53:35;;;;;;;6.00;1.70;;;15.30;86.90;;;;;;5096065;28;20058;-51
2021/06/20 00:56:02;;;;;;;4.43;1.80;;;15.30;86.80;;;;;;5095802;28;20081;-52
2021/06/20 00:58:30;;;;;;;3.60;1.30;;;15.30;86.90;;;;;;5095733;28;20374;-50
2021/06/20 01:00:57;;;;;;;2.90;1.25;;;15.30;86.90;;;;;;5095328;28;20040;-50
2021/06/20 01:03:25;;;;;;;4.57;1.58;;;15.30;86.80;;;;;;5095717;28;20016;-47
2021/06/20 01:05:52;;;;;;;4.70;1.65;;;15.30;86.80;;;;;;5094057;28;20016;-48
2021/06/20 01:08:19;;;;;;;5.47;1.77;;;15.30;86.80;;;;;;5095348;28;20028;-52
2021/06/20 01:10:47;;;;;;;7.13;2.00;;;15.30;86.70;;;;;;5094313;28;20089;-50
2021/06/20 01:13:17;;;;;;;4.63;1.50;;;15.30;86.80;;;;;;5092075;28;20020;-54
2021/06/20 01:15:49;;;;;;;2.40;1.20;;;15.30;86.70;;;;;;5095122;28;20375;-47
2021/06/20 01:18:18;;;;;;;5.15;1.30;;;15.40;86.80;;;;;;5094105;28;20191;-50
2021/06/20 01:20:49;;;;;;;5.50;1.40;;;15.40;86.80;;;;;;5095155;28;20031;-52
2021/06/20 01:23:17;;;;;;;7.93;1.77;;;15.40;86.80;;;;;;5095039;28;20107;-48
2021/06/20 01:25:45;;;;;;;16.58;2.85;;;15.40;87.80;;;;;;5085593;28;20095;-51
2021/06/20 01:28:14;;;;;;;14.13;3.20;;;15.20;90.70;;;;;;5090753;28;20046;-52
2021/06/20 01:30:45;;;;;;;10.15;3.20;;;14.90;91.00;;;;;;5092008;28;20128;-54
2021/06/20 01:33:14;;;;;;;15.93;3.65;;;14.90;91.30;;;;;;5091586;28;20085;-54
2021/06/20 01:35:42;;;;;;;10.65;5.35;;;14.90;91.70;;;;;;5092213;28;20051;-50
2021/06/20 01:38:10;;;;;;;18.98;6.03;;;14.90;91.50;;;;;;5091598;28;20024;-53
2021/06/20 01:40:38;;;;;;;17.45;6.05;;;14.90;91.50;;;;;;5088604;28;20028;-55
2021/06/20 01:43:06;;;;;;;17.70;5.18;;;14.90;91.70;;;;;;5092298;28;20339;-53
2021/06/20 01:45:36;;;;;;;18.27;6.20;;;14.80;91.50;;;;;;5092418;28;20031;-54
2021/06/20 01:48:04;;;;;;;22.33;10.95;;;14.90;91.70;;;;;;5091858;28;20030;-53
2021/06/20 01:50:32;;;;;;;16.52;9.07;;;14.80;92.40;;;;;;5089271;28;20533;-53
2021/06/20 01:53:06;;;;;;;26.02;12.30;;;14.80;92.00;;;;;;5092822;28;20055;-55
2021/06/20 01:55:34;;;;;;;22.23;10.52;;;15.00;92.80;;;;;;5090897;28;20378;-52
2021/06/20 01:58:05;;;;;;;23.10;9.88;;;14.90;92.80;;;;;;5090940;28;20073;-54
2021/06/20 02:00:37;;;;;;;28.77;9.48;;;15.00;92.10;;;;;;5087379;28;20036;-52
2021/06/20 02:03:14;;;;;;;25.30;14.43;;;15.00;92.60;;;;;;5090794;28;20031;-55
2021/06/20 02:05:43;;;;;;;24.20;14.93;;;14.90;92.30;;;;;;5090574;28;20036;-53
2021/06/20 02:08:18;;;;;;;19.13;8.82;;;14.90;92.60;;;;;;5090778;28;20336;-54
2021/06/20 02:10:47;;;;;;;23.58;11.75;;;15.00;93.20;;;;;;5088568;28;20173;-53
2021/06/20 02:13:15;;;;;;;32.85;25.75;;;15.10;93.40;;;;;;5090194;28;20155;-49
2021/06/20 02:15:42;;;;;;;33.00;26.25;;;15.20;93.00;;;;;;5091950;28;20036;-51
2021/06/20 02:18:11;;;;;;;27.00;12.48;;;15.20;91.90;;;;;;5090404;28;20165;-55
2021/06/20 02:20:39;;;;;;;21.17;5.63;;;15.00;93.10;;;;;;5085759;28;20081;-54
2021/06/20 02:23:09;;;;;;;25.38;6.65;;;15.10;93.10;;;;;;5091300;28;20101;-52
2021/06/20 02:25:37;;;;;;;18.88;8.57;;;15.20;93.90;;;;;;5091217;28;20043;-54
2021/06/20 02:28:05;;;;;;;14.45;6.45;;;15.30;93.00;;;;;;5090444;28;20476;-57
2021/06/20 02:30:32;;;;;;;19.60;10.90;;;15.50;92.20;;;;;;5085253;28;20475;-51
2021/06/20 02:33:00;;;;;;;22.75;11.88;;;15.60;92.00;;;;;;5091274;28;20020;-51
2021/06/20 02:35:27;;;;;;;27.85;10.75;;;15.60;92.10;;;;;;5091563;28;20505;-53
2021/06/20 02:37:55;;;;;;;24.15;12.35;;;15.70;91.80;;;;;;5090633;28;20113;-51
2021/06/20 02:40:22;;;;;;;16.05;11.00;;;15.80;91.50;;;;;;5086514;28;20154;-48
2021/06/20 02:42:50;;;;;;;16.85;10.40;;;15.80;91.20;;;;;;5091475;28;20031;-56
2021/06/20 02:45:21;;;;;;;15.32;11.05;;;15.90;91.20;;;;;;5089683;28;20294;-54
2021/06/20 02:47:49;;;;;;;17.90;10.32;;;15.90;91.00;;;;;;5090976;28;20099;-50
2021/06/20 02:50:18;;;;;;;24.30;10.43;;;16.00;91.00;;;;;;5085876;28;20627;-54
2021/06/20 02:52:49;;;;;;;21.00;9.88;;;16.10;91.00;;;;;;5092009;28;20111;-46
2021/06/20 02:55:16;;;;;;;17.58;9.43;;;16.20;90.90;;;;;;5092775;28;20107;-54
2021/06/20 02:57:44;;;;;;;16.85;9.95;;;16.20;90.50;;;;;;5091317;28;20044;-52
2021/06/20 03:00:12;;;;;;;19.13;9.38;;;16.30;90.30;;;;;;5085195;28;20131;-48
2021/06/20 03:02:40;;;;;;;12.35;7.80;;;16.30;90.20;;;;;;5091483;28;20108;-52
2021/06/20 03:05:08;;;;;;;15.73;9.70;;;16.40;90.20;;;;;;5091473;28;20035;-52
2021/06/20 03:07:36;;;;;;;16.65;8.52;;;16.50;91.10;;;;;;5089166;28;20032;-51
2021/06/20 03:10:05;;;;;;;12.98;7.88;;;16.60;89.70;;;;;;5086085;28;20028;-54
2021/06/20 03:12:32;;;;;;;13.38;7.90;;;16.70;89.40;;;;;;5090925;28;20478;-53
2021/06/20 03:14:59;;;;;;;14.60;8.40;;;16.80;89.40;;;;;;5090433;28;20414;-53
2021/06/20 03:17:27;;;;;;;11.00;7.45;;;16.90;88.70;;;;;;5090148;28;20032;-55
2021/06/20 03:19:54;;;;;;;20.15;7.50;;;17.00;87.90;;;;;;5085921;28;20740;-49
2021/06/20 03:22:21;;;;;;;11.30;2.90;;;17.10;87.20;;;;;;5091296;28;20027;-51
2021/06/20 03:24:50;;;;;;;14.45;5.28;;;17.00;88.70;;;;;;5090562;28;20150;-49
2021/06/20 03:27:20;;;;;;;12.77;4.68;;;17.20;87.40;;;;;;5089354;28;20418;-56
2021/06/20 03:29:48;;;;;;;16.40;6.43;;;17.00;86.40;;;;;;5086596;28;20036;-52
2021/06/20 03:32:18;;;;;;;11.05;3.83;;;17.00;88.50;;;;;;5088690;28;20158;-49
2021/06/20 03:34:49;;;;;;;15.05;5.93;;;17.00;88.30;;;;;;5091065;28;20135;-52
2021/06/20 03:37:16;;;;;;;24.25;8.38;;;16.80;88.60;;;;;;5088010;28;20052;-51
2021/06/20 03:39:44;;;;;;;26.02;10.93;;;16.90;89.10;;;;;;5085606;28;20080;-54
2021/06/20 03:42:12;;;;;;;19.75;12.02;;;16.80;89.30;;;;;;5090549;28;20039;-57
2021/06/20 03:44:41;;;;;;;35.55;20.65;;;16.70;89.10;;;;;;5090691;28;20023;-53
2021/06/20 03:47:09;;;;;;;18.98;9.20;;;16.60;90.20;;;;;;5089641;28;20134;-56
2021/06/20 03:49:36;;;;;;;20.05;8.32;;;16.30;89.60;;;;;;5085574;28;20032;-53
2021/06/20 03:52:04;;;;;;;13.70;2.58;;;16.40;90.00;;;;;;5090027;28;20354;-48
2021/06/20 03:54:31;;;;;;;14.95;5.80;;;16.30;89.60;;;;;;5090325;28;20036;-57
2021/06/20 03:56:59;;;;;;;9.20;2.47;;;16.50;90.30;;;;;;5089536;28;20028;-52
2021/06/20 03:59:26;;;;;;;9.35;2.80;;;16.60;89.00;;;;;;5084245;28;20113;-52
2021/06/20 04:01:54;;;;;;;15.88;8.25;;;16.50;89.40;;;;;;5088595;28;20103;-50
2021/06/20 04:04:22;;;;;;;18.48;6.47;;;16.30;89.70;;;;;;5090097;28;20081;-56
2021/06/20 04:06:50;;;;;;;17.90;11.60;;;16.30;90.80;;;;;;5088658;28;20024;-54
2021/06/20 04:09:18;;;;;;;23.17;12.70;;;16.40;90.60;;;;;;5084871;28;20109;-52
2021/06/20 04:11:47;;;;;;;19.17;12.05;;;16.30;91.00;;;;;;5089757;28;20020;-51
2021/06/20 04:14:15;;;;;;;25.33;16.27;;;16.30;91.40;;;;;;5089687;28;20024;-52
2021/06/20 04:16:46;;;;;;;33.45;20.08;;;16.30;91.50;;;;;;5089503;28;20035;-53
2021/06/20 04:19:13;;;;;;;11.13;3.75;;;16.30;91.70;;;;;;5085215;28;20107;-53
2021/06/20 04:21:41;;;;;;;11.85;3.85;;;15.90;91.80;;;;;;5089198;28;20020;-54
2021/06/20 04:24:08;;;;;;;22.70;11.88;;;16.10;92.60;;;;;;5089750;28;20470;-50
2021/06/20 04:26:36;;;;;;;20.23;9.73;;;16.50;92.40;;;;;;5088888;28;20056;-52
2021/06/20 04:29:04;;;;;;;18.70;7.53;;;16.60;91.30;;;;;;5085834;28;20038;-51
2021/06/20 04:31:31;;;;;;;8.43;2.40;;;16.80;91.60;;;;;;5089380;28;20482;-50
2021/06/20 04:33:58;;;;;;;18.38;5.72;;;16.60;91.60;;;;;;5094254;28;20089;-49
2021/06/20 04:36:26;;;;;;;23.27;6.97;;;16.70;91.30;;;;;;5094038;28;20103;-53
2021/06/20 04:38:53;;;;;;;18.20;5.40;;;16.60;91.00;;;;;;5088435;28;20440;-49
2021/06/20 04:41:22;;;;;;;35.30;9.43;;;16.90;91.20;;;;;;5093939;28;20039;-52
2021/06/20 04:46:29;;;;;;;6.55;2.75;;;17.00;91.60;;;;;;5094634;28;20020;-53
2021/06/20 04:48:58;;;;;;;12.10;5.20;;;17.00;90.60;;;;;;5088218;28;20029;-58
2021/06/20 04:51:28;;;;;;;20.83;5.00;;;16.90;91.60;;;;;;5093870;28;20036;-58
2021/06/20 04:53:55;;;;;;;25.20;7.28;;;16.80;91.20;;;;;;5092508;28;20028;-58
2021/06/20 04:56:23;;;;;;;13.90;6.40;;;17.00;91.30;;;;;;5095582;28;20031;-61
2021/06/20 04:58:50;;;;;;;22.85;8.75;;;17.10;90.90;;;;;;5095386;28;20491;-60
2021/06/20 05:01:18;;;;;;;38.22;11.65;;;17.20;91.00;;;;;;5095427;28;20081;-59
2021/06/20 05:03:45;;;;;;;23.00;12.77;;;17.30;90.80;;;;;;5095030;28;20496;-56
2021/06/20 05:06:13;;;;;;;39.50;12.07;;;17.30;90.70;;;;;;5095533;28;20032;-59
2021/06/20 05:08:40;;;;;;;28.08;15.57;;;17.40;90.50;;;;;;5095542;28;20035;-64
2021/06/20 05:11:08;;;;;;;31.40;13.77;;;17.50;90.60;;;;;;5095103;28;20036;-59
2021/06/20 05:13:35;;;;;;;33.47;17.27;;;17.50;90.80;;;;;;5095427;28;20028;-62
2021/06/20 05:16:03;;;;;;;29.50;11.45;;;17.60;90.80;;;;;;5095562;28;20470;-58
2021/06/20 05:18:30;;;;;;;33.90;12.50;;;17.60;90.80;;;;;;5095499;28;20028;-58
2021/06/20 05:20:57;;;;;;;33.22;15.30;;;17.70;90.90;;;;;;5095085;28;20028;-60
2021/06/20 05:23:25;;;;;;;42.97;18.70;;;17.70;91.00;;;;;;5095187;28;20016;-61
2021/06/20 05:25:53;;;;;;;30.95;19.15;;;17.80;91.40;;;;;;5095110;28;20107;-61
2021/06/20 05:28:20;;;;;;;34.30;22.77;;;17.80;91.30;;;;;;5094735;28;20024;-61
2021/06/20 05:30:48;;;;;;;30.08;11.57;;;17.80;91.70;;;;;;5095491;28;20036;-59
2021/06/20 05:33:20;;;;;;;35.55;13.40;;;17.70;91.60;;;;;;5095248;28;20030;-56
2021/06/20 05:36:02;;;;;;;21.92;11.68;;;17.70;91.60;;;;;;5095154;28;20540;-59
2021/06/20 05:38:29;;;;;;;;;;;17.80;91.90;;;;;;5095933;28;20039;-59
2021/06/20 05:40:59;;;;;;;38.10;14.73;;;17.70;92.10;;;;;;5094912;28;19958;-60
2021/06/20 05:43:26;;;;;;;37.08;14.15;;;17.70;92.30;;;;;;5094521;28;20032;-60
2021/06/20 05:45:54;;;;;;;46.63;19.20;;;17.70;92.80;;;;;;5094610;28;20025;-59
2021/06/20 05:48:21;;;;;;;39.60;14.90;;;17.80;92.80;;;;;;5094883;28;20062;-59
2021/06/20 05:50:49;;;;;;;33.22;10.48;;;17.80;93.30;;;;;;5093730;28;20451;-59
2021/06/20 05:53:17;;;;;;;28.65;11.20;;;17.70;93.20;;;;;;5094731;28;20023;-58
2021/06/20 05:55:44;;;;;;;42.50;10.05;;;17.70;93.10;;;;;;5093108;28;20124;-56
2021/06/20 05:58:12;;;;;;;24.40;7.75;;;17.70;93.10;;;;;;5094423;28;20023;-57
2021/06/20 06:00:39;;;;;;;26.65;6.57;;;17.70;93.00;;;;;;5094593;28;20028;-56
2021/06/20 06:03:07;;;;;;;22.52;5.85;;;17.80;93.00;;;;;;5093847;28;20020;-58
2021/06/20 06:05:35;;;;;;;51.58;7.55;;;17.80;92.70;;;;;;5094034;28;20035;-58
2021/06/20 06:08:02;;;;;;;25.23;5.78;;;17.80;92.50;;;;;;5093976;28;20024;-56
2021/06/20 06:10:31;;;;;;;27.27;5.35;;;17.70;92.30;;;;;;5094026;28;20489;-56
2021/06/20 06:12:59;;;;;;;27.20;6.03;;;17.60;92.50;;;;;;5093167;28;20039;-54
2021/06/20 06:15:28;;;;;;;23.10;4.57;;;17.20;91.70;;;;;;5094076;28;20471;-50
2021/06/20 06:17:56;;;;;;;20.92;5.97;;;16.80;91.20;;;;;;5092287;28;20098;-52
2021/06/20 06:20:24;;;;;;;27.15;5.05;;;16.60;93.50;;;;;;5094425;28;20501;-54
2021/06/20 06:22:51;;;;;;;17.75;5.07;;;16.50;93.10;;;;;;5094178;28;20031;-53
2021/06/20 06:25:19;;;;;;;19.33;4.75;;;16.30;91.90;;;;;;5084818;28;20023;-50
2021/06/20 06:27:46;;;;;;;19.13;5.00;;;16.10;93.00;;;;;;5090466;28;20128;-52
2021/06/20 06:30:18;;;;;;;13.60;3.90;;;16.00;92.80;;;;;;5090563;28;20081;-52
2021/06/20 06:32:47;;;;;;;10.57;3.70;;;16.10;92.20;;;;;;5091824;28;20020;-48
2021/06/20 06:35:16;;;;;;;32.90;4.57;;;15.60;92.90;;;;;;5089723;28;20035;-52
2021/06/20 06:37:44;;;;;;;21.33;4.15;;;15.90;94.50;;;;;;5092276;28;20082;-55
2021/06/20 06:40:13;;;;;;;14.38;3.92;;;15.90;93.10;;;;;;5089586;28;20059;-50
2021/06/20 06:42:40;;;;;;;15.10;3.17;;;15.90;93.10;;;;;;5091760;28;20038;-53
2021/06/20 06:45:08;;;;;;;23.08;4.45;;;15.80;92.50;;;;;;5088459;28;20032;-52
2021/06/20 06:47:36;;;;;;;16.80;4.15;;;15.70;93.20;;;;;;5091991;28;20025;-54
2021/06/20 06:50:08;;;;;;;10.45;3.20;;;15.80;94.50;;;;;;5087949;28;20115;-59
2021/06/20 06:52:36;;;;;;;10.93;3.90;;;15.70;92.60;;;;;;5091530;28;20048;-54
2021/06/20 06:55:05;;;;;;;10.63;3.13;;;15.70;93.10;;;;;;5090597;28;20056;-54
2021/06/20 06:57:34;;;;;;;14.43;3.65;;;15.70;93.20;;;;;;5090727;28;20024;-51
2021/06/20 07:00:01;;;;;;;12.57;4.07;;;15.50;93.70;;;;;;5085916;28;20031;-56
2021/06/20 07:02:32;;;;;;;16.08;5.18;;;15.60;94.10;;;;;;5090031;28;20039;-55
2021/06/20 07:04:59;;;;;;;15.77;5.13;;;15.50;94.00;;;;;;5088962;28;20036;-59
2021/06/20 07:07:37;;;;;;;17.77;4.30;;;15.40;93.70;;;;;;5089962;28;20055;-54
2021/06/20 07:10:05;;;;;;;13.75;4.60;;;15.60;93.40;;;;;;5084408;28;20057;-54
2021/06/20 07:12:33;;;;;;;17.60;3.83;;;15.50;93.70;;;;;;5091122;28;20038;-53
2021/06/20 07:15:04;;;;;;;15.95;4.22;;;15.40;94.00;;;;;;5089536;28;20111;-59
2021/06/20 07:17:33;;;;;;;14.27;5.10;;;15.40;93.90;;;;;;5089259;28;20482;-55
2021/06/20 07:20:01;;;;;;;16.42;4.10;;;15.50;93.80;;;;;;5087256;28;20036;-53
2021/06/20 07:22:29;;;;;;;17.23;4.28;;;15.60;93.20;;;;;;5091369;28;20048;-56
2021/06/20 07:24:56;;;;;;;21.45;5.13;;;15.50;93.60;;;;;;5089900;28;20031;-53
2021/06/20 07:27:24;;;;;;;12.07;3.80;;;15.50;93.50;;;;;;5091568;28;20070;-53
2021/06/20 07:29:51;;;;;;;16.50;4.75;;;15.40;93.30;;;;;;5088196;28;20082;-56
2021/06/20 07:32:18;;;;;;;18.80;4.40;;;15.50;94.10;;;;;;5092085;28;20509;-55
2021/06/20 07:34:46;;;;;;;25.60;4.85;;;15.70;93.90;;;;;;5092778;28;20055;-56
2021/06/20 07:37:13;;;;;;;20.05;4.47;;;15.80;93.50;;;;;;5091396;28;20106;-56
2021/06/20 07:39:40;;;;;;;13.80;4.18;;;16.00;93.20;;;;;;5092775;28;20089;-56
2021/06/20 07:42:08;;;;;;;11.52;4.20;;;16.10;92.90;;;;;;5092276;28;20096;-55
2021/06/20 07:44:35;;;;;;;15.55;3.95;;;16.10;92.70;;;;;;5092084;28;20028;-54
2021/06/20 07:47:03;;;;;;;14.43;4.13;;;16.20;92.50;;;;;;5092498;28;20040;-52
2021/06/20 07:49:30;;;;;;;15.25;4.18;;;16.20;92.40;;;;;;5092396;28;20044;-56
2021/06/20 07:51:57;;;;;;;20.58;4.45;;;16.20;92.30;;;;;;5092452;28;20481;-52
2021/06/20 07:54:25;;;;;;;12.60;4.47;;;16.20;92.30;;;;;;5091258;28;20016;-57
2021/06/20 07:56:52;;;;;;;13.82;3.88;;;16.20;92.20;;;;;;5091531;28;20028;-53
2021/06/20 07:59:20;;;;;;;14.20;3.38;;;16.20;92.10;;;;;;5092637;28;20032;-54
2021/06/20 08:01:47;;;;;;;15.25;4.70;;;16.20;92.10;;;;;;5091984;28;20035;-57
2021/06/20 08:04:14;;;;;;;15.18;4.30;;;16.20;92.10;;;;;;5092304;28;20025;-57
2021/06/20 08:06:42;;;;;;;14.38;3.67;;;16.10;92.00;;;;;;5092363;28;20032;-58
2021/06/20 08:09:09;;;;;;;12.70;4.43;;;16.10;92.00;;;;;;5092352;28;20036;-58
2021/06/20 08:11:37;;;;;;;12.35;3.05;;;16.10;92.00;;;;;;5092105;28;20040;-54
2021/06/20 08:14:05;;;;;;;7.90;3.17;;;16.10;92.00;;;;;;5091874;28;20481;-51
2021/06/20 08:16:33;;;;;;;13.43;3.92;;;16.10;91.90;;;;;;5089418;28;20136;-57
2021/06/20 08:19:00;;;;;;;9.93;3.53;;;16.10;91.90;;;;;;5090285;28;20028;-56
2021/06/20 08:21:27;;;;;;;11.75;3.60;;;16.10;91.90;;;;;;5092647;28;20028;-58
2021/06/20 08:23:56;;;;;;;9.48;3.28;;;16.00;91.90;;;;;;5092763;28;20336;-54
2021/06/20 08:26:23;;;;;;;12.10;3.92;;;16.00;91.90;;;;;;5092484;28;20040;-56
2021/06/20 08:28:50;;;;;;;6.47;3.35;;;16.00;91.90;;;;;;5092457;28;20481;-57
2021/06/20 08:31:18;;;;;;;10.10;3.30;;;16.00;91.80;;;;;;5092816;28;20040;-53
2021/06/20 08:33:45;;;;;;;11.57;3.97;;;16.00;91.80;;;;;;5091422;28;20048;-57
2021/06/20 08:36:13;;;;;;;9.82;3.50;;;16.00;91.80;;;;;;5092564;28;20020;-56
2021/06/20 08:38:42;;;;;;;10.48;3.53;;;16.00;91.80;;;;;;5092609;28;20027;-59
2021/06/20 08:41:13;;;;;;;11.85;3.95;;;16.00;91.80;;;;;;5092168;28;20490;-50
2021/06/20 08:43:40;;;;;;;7.15;3.25;;;15.90;91.80;;;;;;5092581;28;20416;-52
2021/06/20 08:46:09;;;;;;;10.20;3.70;;;15.90;91.70;;;;;;5092961;28;20016;-52
2021/06/20 08:48:37;;;;;;;9.50;3.25;;;15.90;91.70;;;;;;5092407;28;20039;-51
2021/06/20 08:51:06;;;;;;;9.60;2.85;;;15.90;91.70;;;;;;5092164;28;20036;-57
2021/06/20 08:53:33;;;;;;;10.02;3.38;;;15.90;91.70;;;;;;5092462;28;20027;-53
2021/06/20 08:56:01;;;;;;;10.82;2.65;;;15.90;91.70;;;;;;5093069;28;20389;-58
2021/06/20 08:58:33;;;;;;;12.93;3.55;;;15.80;91.70;;;;;;5092377;28;20032;-57
2021/06/20 09:01:03;;;;;;;7.57;3.13;;;15.80;91.70;;;;;;5092426;28;20024;-59
2021/06/20 09:03:46;;;;;;;10.70;3.50;;;15.80;91.70;;;;;;5092405;28;20394;-56
2021/06/20 09:06:24;;;;;;;9.25;3.17;;;15.80;91.70;;;;;;5092566;28;20374;-51
2021/06/20 09:08:57;;;;;;;11.90;3.03;;;15.80;91.70;;;;;;5092352;28;20035;-53
2021/06/20 09:11:38;;;;;;;7.93;3.58;;;15.80;91.70;;;;;;5092764;28;20032;-56
2021/06/20 09:14:09;;;;;;;6.65;2.83;;;15.80;91.70;;;;;;5096169;28;20016;-55
2021/06/20 09:16:49;;;;;;;8.32;3.28;;;15.80;91.60;;;;;;5096541;28;20028;-53
2021/06/20 09:19:17;;;;;;;8.27;2.85;;;15.80;91.70;;;;;;5096220;28;20032;-56
2021/06/20 09:21:54;;;;;;;9.73;2.92;;;15.70;91.60;;;;;;5095083;28;20024;-53
2021/06/20 09:24:22;;;;;;;5.60;2.83;;;15.70;91.60;;;;;;5096316;28;20024;-57
2021/06/20 09:26:54;;;;;;;7.90;3.83;;;15.70;91.60;;;;;;5095404;28;20131;-58
2021/06/20 09:29:35;;;;;;;8.68;2.53;;;15.70;91.70;;;;;;5095595;28;20526;-55
2021/06/20 09:32:10;;;;;;;7.47;2.78;;;15.70;91.60;;;;;;5095136;28;20435;-55
2021/06/20 09:34:45;;;;;;;6.28;2.58;;;15.70;91.70;;;;;;5088221;28;20081;-54
2021/06/20 09:37:14;;;;;;;5.95;2.70;;;15.70;91.70;;;;;;5090795;28;20652;-50
2021/06/20 09:39:41;;;;;;;9.73;2.70;;;15.70;91.70;;;;;;5093409;28;20028;-55
2021/06/20 09:42:11;;;;;;;5.95;2.78;;;15.60;91.70;;;;;;5091057;28;20028;-62
2021/06/20 09:44:42;;;;;;;6.18;3.20;;;15.60;91.70;;;;;;5092288;28;20024;-55
2021/06/20 09:47:17;;;;;;;7.32;3.00;;;15.60;91.70;;;;;;5092609;28;20034;-55
2021/06/20 09:49:56;;;;;;;9.07;3.33;;;15.70;91.70;;;;;;5093712;28;20462;-53
2021/06/20 09:52:30;;;;;;;8.98;3.25;;;15.70;91.60;;;;;;5093025;28;20119;-55
2021/06/20 09:55:00;;;;;;;7.72;2.35;;;15.70;91.50;;;;;;5089681;28;20508;-51
2021/06/20 09:57:27;;;;;;;8.68;4.05;;;15.70;91.50;;;;;;5093402;28;20028;-52
2021/06/20 10:00:04;;;;;;;6.97;3.00;;;15.70;91.50;;;;;;5093269;28;20099;-57
2021/06/20 10:02:38;;;;;;;8.00;2.60;;;15.70;91.40;;;;;;5092766;28;20031;-54
2021/06/20 10:05:07;;;;;;;5.72;2.55;;;15.80;91.30;;;;;;5085556;28;20495;-59
2021/06/20 10:07:36;;;;;;;9.27;3.33;;;15.70;91.30;;;;;;5090196;28;20051;-58
2021/06/20 10:10:07;;;;;;;7.90;2.90;;;15.70;91.30;;;;;;5092666;28;20039;-45
2021/06/20 10:12:35;;;;;;;7.00;2.85;;;15.70;91.30;;;;;;5092377;28;20020;-54
2021/06/20 10:15:04;;;;;;;7.97;2.80;;;15.80;91.30;;;;;;5087162;28;20024;-56
2021/06/20 10:17:40;;;;;;;6.85;2.47;;;15.70;91.20;;;;;;5092663;28;20152;-58
2021/06/20 10:20:12;;;;;;;3.92;1.88;;;15.80;91.10;;;;;;5092700;28;20020;-55
2021/06/20 10:22:43;;;;;;;7.85;2.88;;;15.70;91.10;;;;;;5089876;28;20031;-53
2021/06/20 10:25:31;;;;;;;8.75;2.75;;;15.80;91.00;;;;;;5086076;28;20382;-56
2021/06/20 10:28:13;;;;;;;7.35;2.60;;;15.70;90.90;;;;;;5092573;28;20040;-53
2021/06/20 10:30:44;;;;;;;4.78;2.55;;;15.80;90.90;;;;;;5090748;28;20032;-53
2021/06/20 10:33:23;;;;;;;5.00;2.13;;;15.70;90.90;;;;;;5091787;28;20028;-50
2021/06/20 10:36:10;;;;;;;7.55;2.88;;;15.70;90.90;;;;;;5087416;28;20501;-52
2021/06/20 10:38:47;;;;;;;5.18;3.00;;;15.70;90.80;;;;;;5089829;28;20107;-53
2021/06/20 10:41:30;;;;;;;5.60;2.17;;;15.70;90.90;;;;;;5090497;28;20048;-49
2021/06/20 10:44:02;;;;;;;6.18;2.55;;;15.70;90.80;;;;;;5090741;28;20069;-50
2021/06/20 10:46:31;;;;;;;6.35;2.83;;;15.70;90.80;;;;;;5086278;28;20057;-54
2021/06/20 10:49:00;;;;;;;6.10;2.55;;;15.70;90.80;;;;;;5090940;28;20028;-49
2021/06/20 10:51:31;;;;;;;7.63;2.70;;;15.70;90.70;;;;;;5092215;28;20092;-50
2021/06/20 10:54:01;;;;;;;7.00;2.33;;;15.70;90.60;;;;;;5091781;28;20534;-48
2021/06/20 10:56:32;;;;;;;6.90;2.58;;;15.70;90.70;;;;;;5085841;28;20032;-46
2021/06/20 10:59:00;;;;;;;6.20;2.70;;;15.70;90.60;;;;;;5091821;28;20031;-51
2021/06/20 11:01:41;;;;;;;4.70;2.25;;;15.70;90.60;;;;;;5092083;28;20050;-46
2021/06/20 11:04:08;;;;;;;5.65;2.22;;;15.70;90.50;;;;;;5091734;28;20035;-52
2021/06/20 11:06:35;;;;;;;6.75;2.28;;;15.70;90.50;;;;;;5086428;28;20028;-48
2021/06/20 11:09:07;;;;;;;5.30;2.10;;;15.70;90.50;;;;;;5090410;28;20017;-53
2021/06/20 11:11:36;;;;;;;8.60;2.58;;;15.60;90.40;;;;;;5091898;28;20039;-49
2021/06/20 11:14:09;;;;;;;3.67;1.73;;;15.70;90.50;;;;;;5091384;28;20023;-53
2021/06/20 11:16:42;;;;;;;3.03;1.75;;;15.60;90.40;;;;;;5086949;28;20108;-56
2021/06/20 11:19:24;;;;;;;8.52;2.88;;;15.70;90.40;;;;;;5091159;28;20063;-51
2021/06/20 11:21:53;;;;;;;4.07;1.85;;;15.70;90.40;;;;;;5090963;28;20028;-56
2021/06/20 11:24:30;;;;;;;5.95;2.47;;;15.70;90.30;;;;;;5087747;28;20051;-53
2021/06/20 11:27:04;;;;;;;6.95;2.38;;;15.60;90.30;;;;;;5088952;28;20047;-55
2021/06/20 11:29:47;;;;;;;6.18;2.70;;;15.60;90.30;;;;;;5091114;28;20442;-51
2021/06/20 11:32:20;;;;;;;6.63;2.30;;;15.50;90.30;;;;;;5089946;28;20368;-54
2021/06/20 11:34:50;;;;;;;6.60;2.13;;;15.50;90.30;;;;;;5084288;28;20028;-58
2021/06/20 11:37:21;;;;;;;7.75;2.97;;;15.50;90.30;;;;;;5090984;28;20112;-48
2021/06/20 11:39:49;;;;;;;3.30;1.75;;;15.50;90.30;;;;;;5091501;28;20443;-47
2021/06/20 11:42:30;;;;;;;5.28;2.03;;;15.50;90.30;;;;;;5089995;28;20031;-51
2021/06/20 11:45:04;;;;;;;4.55;2.50;;;15.50;90.30;;;;;;5084407;28;20032;-47
2021/06/20 11:47:40;;;;;;;4.78;1.80;;;15.40;90.30;;;;;;5090384;28;20130;-53
2021/06/20 11:50:32;;;;;;;5.38;2.10;;;15.40;90.60;;;;;;5090112;28;20032;-47
2021/06/20 11:53:08;;;;;;;5.82;2.20;;;15.40;90.30;;;;;;5090148;28;20024;-51
2021/06/20 11:55:37;;;;;;;4.13;2.22;;;15.40;90.30;;;;;;5082724;28;20059;-51
2021/06/20 11:58:13;;;;;;;3.40;1.60;;;15.30;90.30;;;;;;5091034;28;20020;-48
2021/06/20 12:00:45;;;;;;;5.38;2.40;;;15.30;90.40;;;;;;5089257;28;20389;-52
2021/06/20 12:03:18;;;;;;;5.32;1.75;;;15.30;90.40;;;;;;5088832;28;20028;-51
2021/06/20 12:05:58;;;;;;;5.20;2.38;;;15.30;90.40;;;;;;5084353;28;20032;-50
2021/06/20 12:08:26;;;;;;;2.88;1.70;;;15.30;90.40;;;;;;5091512;28;20123;-56
2021/06/20 12:10:57;;;;;;;5.30;1.95;;;15.30;90.30;;;;;;5091464;28;20062;-48
2021/06/20 12:13:25;;;;;;;5.32;2.20;;;15.30;90.30;;;;;;5091845;28;20382;-54
2021/06/20 12:16:01;;;;;;;6.63;1.65;;;15.30;90.20;;;;;;5090962;28;20482;-53
2021/06/20 12:18:29;;;;;;;5.35;2.00;;;15.30;90.20;;;;;;5081061;28;20077;-60
2021/06/20 12:20:56;;;;;;;6.07;2.30;;;15.30;90.20;;;;;;5091717;28;20570;-52
2021/06/20 12:23:27;;;;;;;6.40;2.10;;;15.30;90.10;;;;;;5092213;28;20036;-51
2021/06/20 12:25:56;;;;;;;4.13;1.75;;;15.30;90.10;;;;;;5081165;28;20111;-54
2021/06/20 12:28:23;;;;;;;2.58;1.48;;;15.30;90.20;;;;;;5090482;28;20561;-53
2021/06/20 12:30:53;;;;;;;3.40;1.88;;;15.20;90.10;;;;;;5090364;28;20543;-51
2021/06/20 12:33:26;;;;;;;5.22;2.05;;;15.20;90.10;;;;;;5091974;28;20024;-53
2021/06/20 12:35:55;;;;;;;3.15;1.70;;;15.20;90.10;;;;;;5091941;28;20055;-53
2021/06/20 12:38:25;;;;;;;6.65;1.90;;;15.20;90.20;;;;;;5091606;28;20336;-54
2021/06/20 12:40:52;;;;;;;4.35;2.00;;;15.20;90.20;;;;;;5089899;28;20110;-50
2021/06/20 12:43:22;;;;;;;5.30;1.80;;;15.20;90.20;;;;;;5091003;28;20498;-54
2021/06/20 12:46:05;;;;;;;2.70;1.55;;;15.20;90.20;;;;;;5092484;28;20107;-52
2021/06/20 12:48:43;;;;;;;4.65;1.55;;;15.20;90.10;;;;;;5096588;28;20123;-51
2021/06/20 12:51:13;;;;;;;8.35;2.72;;;15.10;90.10;;;;;;5094653;28;20559;-54
2021/06/20 12:53:45;;;;;;;3.95;1.80;;;15.20;90.20;;;;;;5096136;28;20115;-49
2021/06/20 12:56:27;;;;;;;2.58;1.60;;;15.20;90.20;;;;;;5096221;28;20059;-52